Gillette, WY (82716)

4:37 PM MST on February 11, 2016 (GMT -0700)
Gillette-Campbell County | | Change Station
CLOSE
Current Station
Airport
Location: Gillette,
Elevation: 4364 ft
Nearby Weather Stations

Elev 4364 ft 44.34 °N, 105.54 °W | Updated 44 minutes ago

Clear
Clear
50 °F
Feels Like 50 °F
N
20
Wind Variable Wind from NNW
Gusts 28 mph

Today
High -- | Low -- °F
--% Chance of Precip.
Yesterday
High -- | Low -- °F
Precip. -- in
Pressure 30.12 in
Visibility 10.0 miles
Clouds Clear
Dew Point 25 °F
Humidity 38%
Rainfall 0.00 in
Snow Depth Not available.
7:09 AM 5:25 PM
Waxing Crescent, 15% visible
METAR KGCC 112253Z AUTO 33017G24KT 10SM CLR 10/M04 A3014 RMK AO2 PK WND 32028/2207 SLP200 T01001039
Pressure 30.12 in
Visibility 10.0 miles
Clouds Clear
Dew Point 25 °F
Humidity 38%
Rainfall 0.00 in
Snow Depth Not available.
7:09 AM 5:25 PM
Waxing Crescent, 15% visible
METAR KGCC 112253Z AUTO 33017G24KT 10SM CLR 10/M04 A3014 RMK AO2 PK WND 32028/2207 SLP200 T01001039

10-Day Weather Forecast

Almanac

Astronomy

Feb. 11, 2016 Rise Set
Actual Time
Civil Twilight
Nautical Twilight
Astronomical Twilight
Moon
Length of Visible Light
Length of Day
Tomorrow will be .
, % of the Moon is Illuminated

Today's Extremes

State Highs State Lows

Community

WunderPhotos

Upload Photos

1,892,181 photos uploaded!

WunderBlog® & News

Nearby

Air Quality

  Air Quality AQ Index Pollutant
Not available.

Snow Depth

Station Depth Elevation

Earthquake Activity

City Distance Mag. Time & Date
Minimum magnitude displayed is 2.5.

Coastal Water Temperatures

Place Temperature

Stations

Nearby Weather Stations

Station Location Temp. Windchill Dew Point Humidity Wind Precip. Elev Updated Type
                   

Watches & Warnings

There are currently no watches in effect.